Time;durP1;ratioP1;P1;durP2;ratioP2;P2;SDS_P1;SDS_P2;PMS_P1;PMS_P2;Temp;Humidity;BMP_temperature;BMP_pressure;BME280_temperature;BME280_humidity;BME280_pressure;Samples;Min_cycle;Max_cycle;Signal;HPM_P1;HPM_P2
2023/07/22 00:00:59;;;;;;;5.38;4.88;;;;;;;-144.30;61.20;83734.91;5022672;28;20228;-52
2023/07/22 00:03:28;;;;;;;8.18;5.38;;;;;;;-144.30;61.40;83814.41;5020417;28;20233;-52
2023/07/22 00:06:06;;;;;;;8.93;5.25;;;;;;;-144.30;61.28;84398.63;5021666;28;20189;-47
2023/07/22 00:08:33;;;;;;;7.25;5.55;;;;;;;-144.30;61.23;83790.56;5022616;28;20204;-52
2023/07/22 00:11:00;;;;;;;9.70;6.00;;;;;;;-144.30;60.88;83792.53;5022254;28;20281;-48
2023/07/22 00:13:27;;;;;;;8.98;5.53;;;;;;;-144.30;61.47;83818.38;5020491;28;20696;-53
2023/07/22 00:15:54;;;;;;;6.25;5.35;;;;;;;-144.30;61.79;83611.72;5022025;28;20211;-48
2023/07/22 00:18:21;;;;;;;5.72;5.22;;;;;;;-144.30;61.86;83826.31;5022355;28;20208;-48
2023/07/22 00:20:50;;;;;;;8.00;5.90;;;;;;;-144.30;62.23;83830.28;5022817;28;20193;-53
2023/07/22 00:23:19;;;;;;;5.90;5.22;;;;;;;-144.30;62.64;83824.31;5021465;28;20198;-47
2023/07/22 00:25:46;;;;;;;6.65;5.38;;;;;;;-144.30;62.56;83842.22;5020310;28;20253;-47
2023/07/22 00:28:13;;;;;;;7.18;5.10;;;;;;;-144.30;62.52;83828.31;5021597;28;20201;-47
2023/07/22 00:30:41;;;;;;;6.53;5.55;;;;;;;-144.30;62.71;83846.19;5021739;28;20678;-49
2023/07/22 00:33:08;;;;;;;5.35;4.95;;;;;;;-144.30;62.85;83834.25;5020348;28;20281;-53
2023/07/22 00:35:35;;;;;;;6.03;5.53;;;;;;;-144.30;62.88;83842.22;5021195;28;20197;-49
2023/07/22 00:38:04;;;;;;;6.30;5.70;;;;;;;-144.30;63.09;83850.16;5022180;28;20681;-48
2023/07/22 00:40:31;;;;;;;6.00;5.55;;;;;;;-144.30;63.48;83862.09;5019873;28;20257;-48
2023/07/22 00:42:59;;;;;;;10.23;5.70;;;;;;;-144.30;63.46;83860.09;5020397;28;20193;-48
2023/07/22 00:45:25;;;;;;;5.93;5.53;;;;;;;-144.30;63.26;83877.97;5022155;28;20225;-48
2023/07/22 00:47:53;;;;;;;6.00;5.47;;;;;;;-144.30;63.47;83850.16;5020794;28;20220;-52
2023/07/22 00:50:20;;;;;;;6.95;5.93;;;;;;;-144.30;63.57;83891.88;5020640;28;20203;-52
2023/07/22 00:52:47;;;;;;;7.55;5.68;;;;;;;-144.30;63.35;83860.09;5021890;28;20618;-46
2023/07/22 00:55:15;;;;;;;7.57;5.82;;;;;;;-144.30;63.66;83850.16;5020501;28;20198;-47
2023/07/22 00:57:42;;;;;;;10.60;5.50;;;;;;;-144.30;64.16;83915.75;5019939;28;20677;-47
2023/07/22 01:00:11;;;;;;;7.43;6.05;;;;;;;-144.30;64.22;83885.94;5020068;28;20671;-49
2023/07/22 01:02:38;;;;;;;7.15;5.90;;;;;;;-144.30;64.40;83838.25;5021112;28;20340;-48
2023/07/22 01:05:07;;;;;;;8.65;5.45;;;;;;;-144.30;64.39;83858.09;5000855;28;20595;-47
2023/07/22 01:07:35;;;;;;;10.27;5.53;;;;;;;-144.30;63.99;83840.22;5001451;28;20208;-53
2023/07/22 01:10:05;;;;;;;7.60;5.65;;;;;;;-144.30;63.66;83854.13;5000400;28;20208;-52
2023/07/22 01:12:33;;;;;;;8.02;5.60;;;;;;;-144.30;63.77;83877.97;5001784;28;20199;-48
2023/07/22 01:15:03;;;;;;;7.15;5.10;;;;;;;-144.30;63.46;83866.06;5000455;28;20523;-48
2023/07/22 01:17:30;;;;;;;5.82;5.43;;;;;;;-144.30;63.80;83850.16;5000762;28;20709;-47
2023/07/22 01:19:58;;;;;;;7.43;5.60;;;;;;;-144.30;63.68;83834.25;5001948;28;20217;-53
2023/07/22 01:22:25;;;;;;;6.40;5.82;;;;;;;-144.30;63.94;83872.03;5000753;28;20201;-53
2023/07/22 01:24:54;;;;;;;8.30;5.63;;;;;;;-144.30;64.12;83895.88;4999888;28;20194;-53
2023/07/22 01:27:21;;;;;;;7.47;5.68;;;;;;;-144.30;63.99;83891.88;5000251;28;20604;-48
2023/07/22 01:29:51;;;;;;;7.78;5.55;;;;;;;-144.30;64.26;83879.97;5000665;28;20217;-48
2023/07/22 01:32:19;;;;;;;6.18;5.68;;;;;;;-144.30;64.45;83909.78;5001531;28;20209;-47
2023/07/22 01:34:47;;;;;;;7.03;6.32;;;;;;;-144.30;64.41;83885.94;5000615;28;20249;-52
2023/07/22 01:37:14;;;;;;;6.57;5.85;;;;;;;-144.30;64.31;83907.78;4999432;28;20679;-47
2023/07/22 01:39:41;;;;;;;10.77;5.68;;;;;;;-144.30;64.31;83877.97;4999738;28;20221;-47
2023/07/22 01:42:10;;;;;;;6.57;5.80;;;;;;;-144.30;64.48;83870.03;5000446;28;20713;-48
2023/07/22 01:44:36;;;;;;;6.10;5.47;;;;;;;-144.30;64.62;83895.88;5001498;28;20200;-52
2023/07/22 01:47:04;;;;;;;6.10;5.60;;;;;;;-144.30;64.38;83909.78;4999921;28;20209;-47
2023/07/22 01:49:31;;;;;;;6.70;5.13;;;;;;;-144.30;64.64;83893.88;4999809;28;20196;-49
2023/07/22 01:51:58;;;;;;;6.13;5.53;;;;;;;-144.30;64.88;83917.72;5001137;28;20276;-52
2023/07/22 01:54:24;;;;;;;6.70;6.10;;;;;;;-144.30;64.70;83917.72;4999996;28;20195;-53
2023/07/22 01:56:51;;;;;;;6.13;5.53;;;;;;;-144.30;64.52;83881.97;4999674;28;20198;-52
2023/07/22 01:59:20;;;;;;;8.52;5.88;;;;;;;-144.30;64.84;83905.81;5000979;28;20222;-52
2023/07/22 02:01:47;;;;;;;7.25;6.60;;;;;;;-144.30;65.15;83895.88;5000632;28;20656;-52
2023/07/22 02:04:14;;;;;;;7.47;5.70;;;;;;;-144.30;65.30;83899.84;5010685;28;21262;-48
2023/07/22 02:06:41;;;;;;;7.28;5.80;;;;;;;-144.30;65.19;83907.78;5018610;28;20198;-53
2023/07/22 02:09:08;;;;;;;6.57;5.95;;;;;;;-144.30;64.93;83881.97;5019454;28;20209;-52
2023/07/22 02:11:36;;;;;;;6.47;5.88;;;;;;;-144.30;64.88;83862.09;5020616;28;20197;-48
2023/07/22 02:14:06;;;;;;;6.65;6.00;;;;;;;-144.30;64.94;83766.72;5019111;28;20709;-53
2023/07/22 02:16:35;;;;;;;6.38;5.72;;;;;;;-144.30;65.04;83881.97;5018595;28;20203;-52
2023/07/22 02:19:02;;;;;;;6.40;5.80;;;;;;;-144.30;64.92;84172.06;5018301;28;20193;-53
2023/07/22 02:21:29;;;;;;;6.70;5.93;;;;;;;-144.30;64.78;83885.94;5019274;28;20190;-48
2023/07/22 02:23:56;;;;;;;10.43;6.28;;;;;;;-144.30;64.86;83879.97;5020715;28;20661;-47
2023/07/22 02:26:23;;;;;;;8.35;6.05;;;;;;;-144.30;65.15;83895.88;5018645;28;20305;-48
2023/07/22 02:28:50;;;;;;;7.32;6.53;;;;;;;-144.30;64.86;83872.03;5018933;28;20246;-53
2023/07/22 02:31:17;;;;;;;6.75;5.93;;;;;;;-144.30;64.77;83868.03;5020195;28;20597;-53
2023/07/22 02:33:46;;;;;;;7.70;5.75;;;;;;;-144.30;64.70;83889.91;5018655;28;20200;-48
2023/07/22 02:36:13;;;;;;;7.50;6.43;;;;;;;-144.30;64.78;83877.97;5018408;28;20209;-48
2023/07/22 02:38:40;;;;;;;7.38;5.90;;;;;;;-144.30;64.57;83826.31;5019952;28;20201;-48
2023/07/22 02:41:07;;;;;;;8.23;6.30;;;;;;;-144.30;64.54;83881.97;5029420;28;20227;-52
2023/07/22 02:43:35;;;;;;;7.80;6.03;;;;;;;-144.30;64.24;83850.16;5029591;28;20216;-53
2023/07/22 02:46:03;;;;;;;7.47;6.47;;;;;;;-144.30;64.00;83750.81;5029174;28;20248;-46
2023/07/22 02:48:31;;;;;;;6.97;6.30;;;;;;;-144.30;64.06;83862.09;5029547;28;20189;-52
2023/07/22 02:51:05;;;;;;;7.15;6.55;;;;;;;-144.30;64.43;83889.91;5029800;28;20697;-52
2023/07/22 02:53:32;;;;;;;8.05;6.60;;;;;;;-144.30;64.74;83925.66;5029526;28;20200;-53
2023/07/22 02:56:00;;;;;;;8.15;6.15;;;;;;;-144.30;64.77;83876.00;5029522;28;20200;-53
2023/07/22 02:58:27;;;;;;;10.52;6.43;;;;;;;-144.30;64.81;83909.78;5029540;28;20581;-47
2023/07/22 03:00:54;;;;;;;6.82;6.25;;;;;;;-144.30;64.72;83897.84;5027791;28;20221;-48
2023/07/22 03:03:21;;;;;;;7.00;6.40;;;;;;;-144.30;64.86;83907.78;5027980;28;20841;-52
2023/07/22 03:05:48;;;;;;;6.97;6.18;;;;;;;-144.30;64.94;83895.88;5028752;28;20205;-52
2023/07/22 03:08:17;;;;;;;8.05;6.63;;;;;;;-144.30;65.11;83913.75;5028977;28;20201;-49
2023/07/22 03:10:48;;;;;;;13.52;6.78;;;;;;;-144.30;65.06;83907.78;5029138;28;20193;-47
2023/07/22 03:13:14;;;;;;;8.25;6.95;;;;;;;-144.30;65.06;83866.06;5028986;28;20735;-48
2023/07/22 03:15:41;;;;;;;8.55;7.35;;;;;;;-144.30;64.79;83947.53;5029356;28;20210;-47
2023/07/22 03:18:09;;;;;;;8.20;6.30;;;;;;;-144.30;64.91;83891.88;5029201;28;20603;-47
2023/07/22 03:20:37;;;;;;;8.35;7.55;;;;;;;-144.30;64.57;83804.47;5029143;28;20684;-52
2023/07/22 03:23:04;;;;;;;8.13;7.05;;;;;;;-144.30;64.97;83915.75;5028974;28;20201;-52
2023/07/22 03:25:33;;;;;;;7.70;6.95;;;;;;;-144.30;65.00;83897.84;5025754;28;20214;-52
2023/07/22 03:28:04;;;;;;;7.15;6.35;;;;;;;-144.30;64.84;83806.44;5017854;28;20282;-52
2023/07/22 03:30:31;;;;;;;10.57;7.22;;;;;;;-144.30;64.55;83881.97;5017776;28;20189;-52
2023/07/22 03:32:58;;;;;;;8.30;7.18;;;;;;;-144.30;64.45;83887.91;5018762;28;20203;-52
2023/07/22 03:35:25;;;;;;;7.40;6.70;;;;;;;-144.30;64.44;83850.16;5016585;28;20210;-52
2023/07/22 03:37:52;;;;;;;11.30;9.05;;;;;;;-144.30;64.01;83794.53;5009178;28;20492;-53
2023/07/22 03:40:20;;;;;;;10.63;9.40;;;;;;;-144.30;63.54;83810.41;5008922;28;20225;-52
2023/07/22 03:42:49;;;;;;;15.05;10.02;;;;;;;-144.30;63.55;83838.25;5009146;28;20194;-52
2023/07/22 03:45:17;;;;;;;10.65;7.65;;;;;;;-144.30;63.24;83860.09;5009318;28;20520;-52
2023/07/22 03:47:45;;;;;;;15.00;8.32;;;;;;;-144.30;62.59;83816.38;5009187;28;20605;-52
2023/07/22 03:50:12;;;;;;;7.88;7.03;;;;;;;-144.30;62.45;83796.50;5008898;28;20190;-52
2023/07/22 03:52:39;;;;;;;8.18;7.32;;;;;;;-144.30;61.95;83774.66;5009004;28;20205;-46
2023/07/22 03:55:06;;;;;;;7.43;6.70;;;;;;;-144.30;61.54;83766.72;5008525;28;20202;-46
2023/07/22 03:57:33;;;;;;;7.28;6.47;;;;;;;-144.30;60.94;83713.06;5009120;28;20291;-51
2023/07/22 04:00:03;;;;;;;10.75;6.85;;;;;;;-144.30;59.42;83603.78;5009019;28;20237;-48
2023/07/22 04:02:30;;;;;;;9.43;6.28;;;;;;;-144.30;56.65;83496.50;5018663;28;20202;-49
2023/07/22 04:04:57;;;;;;;7.45;6.75;;;;;;;-144.30;53.39;83262.03;5018818;28;20221;-52
2023/07/22 04:07:24;;;;;;;7.13;6.53;;;;;;;-144.30;51.54;83210.38;5022843;28;20674;-53
2023/07/22 04:09:51;;;;;;;7.57;6.32;;;;;;;-144.30;49.41;83061.41;5028681;28;20194;-48
2023/07/22 04:12:18;;;;;;;11.02;6.78;;;;;;;-144.30;47.91;82962.06;5028570;28;20208;-49
2023/07/22 04:14:45;;;;;;;8.68;6.30;;;;;;;-144.30;46.46;83401.13;5028681;28;20198;-52
2023/07/22 04:17:15;;;;;;;7.03;6.35;;;;;;;-144.30;44.88;82683.97;5030702;28;20733;-53
2023/07/22 04:19:43;;;;;;;7.22;6.72;;;;;;;-144.30;43.16;82560.81;5032116;28;20201;-47
2023/07/22 04:22:09;;;;;;;7.95;6.65;;;;;;;-144.30;42.80;82529.03;5031997;28;20229;-53
2023/07/22 04:24:37;;;;;;;6.75;5.72;;;;;;;-144.30;42.20;82445.59;5032497;28;20197;-53
2023/07/22 04:27:04;;;;;;;7.50;5.97;;;;;;;-144.30;40.12;82233.09;5032694;28;20228;-52
2023/07/22 04:29:31;;;;;;;7.00;6.40;;;;;;;-144.30;39.25;82137.75;5032761;28;20201;-52
2023/07/22 04:31:59;;;;;;;6.75;6.15;;;;;;;-144.30;38.68;82012.63;5032552;28;20197;-53
2023/07/22 04:34:29;;;;;;;7.95;6.43;;;;;;;-144.30;37.96;81933.19;5032307;28;20205;-52
2023/07/22 04:36:57;;;;;;;7.10;6.47;;;;;;;-144.30;39.03;82195.34;5032671;28;20224;-49
2023/07/22 04:39:24;;;;;;;6.90;6.25;;;;;;;-144.30;39.08;82137.75;5032308;28;20248;-51
2023/07/22 04:41:51;;;;;;;8.55;6.65;;;;;;;-144.30;38.62;82113.91;5032099;28;20222;-52
2023/07/22 04:44:18;;;;;;;7.00;6.43;;;;;;;-144.30;38.38;82002.69;5032045;28;20205;-51
2023/07/22 04:46:45;;;;;;;6.90;6.20;;;;;;;-144.30;37.80;81909.38;5031960;28;20201;-47
2023/07/22 04:49:12;;;;;;;12.20;6.50;;;;;;;-144.30;37.75;81909.38;5031982;28;20674;-48
2023/07/22 04:51:41;;;;;;;8.32;6.18;;;;;;;-144.30;37.58;81919.28;5032112;28;20284;-53
2023/07/22 04:54:08;;;;;;;6.95;6.15;;;;;;;-144.30;36.98;81806.09;5032185;28;20205;-52
2023/07/22 04:56:34;;;;;;;9.90;6.20;;;;;;;-144.30;36.01;81603.53;5032291;28;20693;-52
2023/07/22 04:59:03;;;;;;;8.15;6.07;;;;;;;-144.30;34.88;81458.59;5032119;28;20203;-47
2023/07/22 05:01:30;;;;;;;7.03;6.30;;;;;;;-144.30;34.88;81383.13;5031813;28;20232;-53
2023/07/22 05:03:57;;;;;;;7.70;6.43;;;;;;;-144.30;34.12;81264.00;5031712;28;20282;-53
2023/07/22 05:06:24;;;;;;;6.70;6.10;;;;;;;-144.30;33.09;81087.28;5031713;28;20236;-49
2023/07/22 05:08:53;;;;;;;7.13;5.80;;;;;;;-144.30;32.15;80797.41;5026476;28;20201;-49
2023/07/22 05:11:20;;;;;;;9.18;6.03;;;;;;;-144.30;31.35;80565.16;5011913;28;20202;-53
2023/07/22 05:13:47;;;;;;;8.13;6.55;;;;;;;-144.30;30.92;80438.09;5011974;28;20284;-49
2023/07/22 05:16:13;;;;;;;7.05;6.13;;;;;;;-144.30;30.55;80317.00;5014175;28;20197;-51
2023/07/22 05:18:40;;;;;;;6.78;6.20;;;;;;;-144.30;30.93;80418.25;5012205;28;20576;-48
2023/07/22 05:21:07;;;;;;;6.80;6.20;;;;;;;-144.30;31.42;80636.63;5011786;28;20748;-48
2023/07/22 05:23:37;;;;;;;9.30;6.85;;;;;;;-144.30;31.59;80803.38;5011878;28;20725;-48
2023/07/22 05:26:06;;;;;;;8.80;6.55;;;;;;;-144.30;31.68;80753.75;5012178;28;20229;-48
2023/07/22 05:28:36;;;;;;;11.65;6.45;;;;;;;-144.30;31.01;80529.41;5011645;28;20572;-48
2023/07/22 05:31:04;;;;;;;9.38;6.90;;;;;;;-144.30;30.94;80448.03;5012602;28;20201;-49
2023/07/22 05:33:31;;;;;;;9.43;6.70;;;;;;;-144.30;30.72;80509.56;5012145;28;20197;-48
2023/07/22 05:35:58;;;;;;;10.02;7.20;;;;;;;-144.30;31.53;80735.88;5011307;28;20248;-53
2023/07/22 05:38:25;;;;;;;9.55;6.25;;;;;;;-144.30;31.15;80598.91;5011255;28;20212;-48
2023/07/22 05:40:53;;;;;;;9.27;6.85;;;;;;;-144.30;31.11;80537.34;5011144;28;20227;-53
2023/07/22 05:43:21;;;;;;;7.55;6.75;;;;;;;-144.30;30.50;80420.22;5011165;28;20221;-49
2023/07/22 05:45:48;;;;;;;8.93;7.55;;;;;;;-144.30;30.94;80495.66;5011162;28;20202;-49
2023/07/22 05:48:15;;;;;;;8.70;6.82;;;;;;;-144.30;30.70;80463.91;5011039;28;20202;-51
2023/07/22 05:50:42;;;;;;;8.13;7.40;;;;;;;-144.30;30.71;80410.31;5011142;28;20194;-53
2023/07/22 05:53:09;;;;;;;7.82;7.05;;;;;;;-144.30;30.55;80394.44;5010468;28;20197;-48
2023/07/22 05:55:36;;;;;;;9.90;7.18;;;;;;;-144.30;30.98;80473.84;5010025;28;20281;-49
2023/07/22 05:58:05;;;;;;;10.40;6.85;;;;;;;-144.30;30.52;80408.31;5010934;28;20692;-49
2023/07/22 06:00:34;;;;;;;12.63;7.78;;;;;;;-144.30;30.17;80283.28;5011046;28;20225;-53
2023/07/22 06:03:01;;;;;;;14.75;8.18;;;;;;;-144.30;30.60;80338.84;5010704;28;20199;-53
2023/07/22 06:05:27;;;;;;;8.52;7.10;;;;;;;-144.30;30.32;80324.94;5010832;28;20700;-53
2023/07/22 06:07:57;;;;;;;8.45;7.53;;;;;;;-144.30;30.35;80255.47;5011182;28;20197;-50
2023/07/22 06:10:23;;;;;;;8.77;7.90;;;;;;;-144.30;29.97;80132.41;5010556;28;20202;-50
2023/07/22 06:12:50;;;;;;;9.60;7.18;;;;;;;-144.30;30.16;80110.56;5010788;28;20212;-53
2023/07/22 06:15:17;;;;;;;10.05;7.15;;;;;;;-144.30;30.03;80140.34;5010748;28;20197;-52
2023/07/22 06:17:46;;;;;;;21.13;16.92;;;;;;;-144.30;30.04;80164.16;5010835;28;20199;-50
2023/07/22 06:20:13;;;;;;;16.10;11.82;;;;;;;-144.30;29.83;80215.78;5010702;28;20194;-50
2023/07/22 06:22:40;;;;;;;16.60;9.02;;;;;;;-144.30;29.63;80057.00;5010750;28;20596;-49
2023/07/22 06:25:07;;;;;;;10.75;8.32;;;;;;;-144.30;29.74;80080.81;5010248;28;20197;-53
2023/07/22 06:27:35;;;;;;;9.73;8.73;;;;;;;-144.30;29.68;80053.03;5010511;28;20251;-50
2023/07/22 06:30:02;;;;;;;10.60;8.27;;;;;;;-144.30;29.84;80080.81;5010200;28;20201;-53
2023/07/22 06:32:29;;;;;;;12.25;8.20;;;;;;;-144.30;29.80;80211.81;5010518;28;20729;-53
2023/07/22 06:34:58;;;;;;;8.55;7.88;;;;;;;-144.30;30.58;80461.94;5010437;28;20197;-53
2023/07/22 06:37:25;;;;;;;12.55;8.73;;;;;;;-144.30;31.09;80547.28;5010068;28;20197;-50
2023/07/22 06:39:53;;;;;;;13.13;8.48;;;;;;;-144.30;31.00;80438.09;5009500;28;20264;-50
2023/07/22 06:42:20;;;;;;;9.63;8.77;;;;;;;-144.30;30.84;80592.94;5026003;28;20286;-50
2023/07/22 06:44:46;;;;;;;9.20;8.23;;;;;;;-144.30;31.27;80696.16;5017602;28;20202;-50
2023/07/22 06:47:13;;;;;;;10.50;8.75;;;;;;;-144.30;31.88;80954.25;5010179;28;20224;-53
2023/07/22 06:49:41;;;;;;;9.25;8.45;;;;;;;-144.30;32.67;81033.69;5010217;28;20202;-53
2023/07/22 06:52:09;;;;;;;12.32;8.00;;;;;;;-144.30;32.22;80972.13;5009469;28;20255;-53
2023/07/22 06:54:36;;;;;;;9.95;8.82;;;;;;;-144.30;32.51;80954.25;5009272;28;20198;-53
2023/07/22 06:57:05;;;;;;;12.82;9.52;;;;;;;-144.30;32.97;81005.88;5010037;28;20193;-49
2023/07/22 06:59:32;;;;;;;11.68;7.97;;;;;;;-144.30;32.53;80878.81;5010010;28;20193;-48
2023/07/22 07:01:59;;;;;;;9.05;8.15;;;;;;;-144.30;32.51;80896.69;5009363;28;20221;-50
2023/07/22 07:04:27;;;;;;;9.45;8.50;;;;;;;-144.30;32.08;80878.81;5009592;28;20247;-50
2023/07/22 07:06:54;;;;;;;9.55;8.50;;;;;;;-144.30;32.67;80970.16;5009421;28;20619;-50
2023/07/22 07:09:22;;;;;;;8.75;8.15;;;;;;;-144.30;32.87;80960.22;5009179;28;20201;-54
2023/07/22 07:11:49;;;;;;;12.50;8.35;;;;;;;-144.30;32.58;81005.88;5009123;28;20193;-50
2023/07/22 07:14:16;;;;;;;11.00;9.52;;;;;;;-144.30;33.46;81073.38;5009803;28;20233;-50
2023/07/22 07:16:43;;;;;;;16.10;9.73;;;;;;;-144.30;32.83;80984.03;5009305;28;20201;-50
2023/07/22 07:19:10;;;;;;;14.25;8.32;;;;;;;-144.30;32.01;80823.22;5009095;28;20203;-50
2023/07/22 07:21:37;;;;;;;10.07;8.45;;;;;;;-144.30;32.50;80870.88;5009063;28;20308;-50
2023/07/22 07:24:04;;;;;;;11.70;8.50;;;;;;;-144.30;32.61;81005.88;5009260;28;20666;-50
2023/07/22 07:26:32;;;;;;;15.55;8.80;;;;;;;-144.30;32.69;80914.56;5009281;28;20604;-49
2023/07/22 07:28:58;;;;;;;16.90;8.82;;;;;;;-144.30;33.21;81059.50;5009141;28;20201;-50
2023/07/22 07:31:25;;;;;;;9.63;8.23;;;;;;;-144.30;32.53;81043.59;5009155;28;20193;-50
2023/07/22 07:33:52;;;;;;;11.05;8.38;;;;;;;-144.30;32.58;81057.50;5009220;28;20201;-54
2023/07/22 07:36:19;;;;;;;14.10;8.70;;;;;;;-144.30;32.62;81019.78;5009312;28;20284;-53
2023/07/22 07:38:46;;;;;;;14.40;9.05;;;;;;;-144.30;33.11;81113.09;5009106;28;20207;-53
2023/07/22 07:41:13;;;;;;;12.80;8.57;;;;;;;-144.30;32.95;81156.78;5009035;28;20290;-50
2023/07/22 07:43:42;;;;;;;12.38;8.82;;;;;;;-144.30;33.08;81121.03;5009162;28;20200;-52
2023/07/22 07:46:18;;;;;;;11.25;8.00;;;;;;;-144.30;32.84;81067.44;5009017;28;20197;-53
2023/07/22 07:48:46;;;;;;;9.88;8.93;;;;;;;-144.30;33.07;81053.53;5009050;28;20233;-53
2023/07/22 07:51:14;;;;;;;11.65;8.32;;;;;;;-144.30;32.58;80990.00;5003422;28;20201;-53
2023/07/22 07:53:41;;;;;;;11.35;8.95;;;;;;;-144.30;32.18;80815.28;5012854;28;20665;-52
2023/07/22 07:56:08;;;;;;;11.13;8.65;;;;;;;-144.30;31.99;80723.97;5012665;28;20280;-52
2023/07/22 07:58:35;;;;;;;12.65;8.85;;;;;;;-144.30;31.59;80662.44;5012604;28;20197;-49
2023/07/22 08:01:03;;;;;;;11.35;8.98;;;;;;;-144.30;31.22;80585.00;5012536;28;20236;-48
2023/07/22 08:03:31;;;;;;;9.38;8.35;;;;;;;-144.30;31.43;80565.16;5012498;28;20716;-50
2023/07/22 08:05:58;;;;;;;15.50;8.00;;;;;;;-144.30;30.43;80324.94;5012573;28;20197;-53
2023/07/22 08:08:25;;;;;;;13.70;8.88;;;;;;;-144.30;30.06;80195.94;5012309;28;20197;-53
2023/07/22 08:10:59;;;;;;;9.95;7.90;;;;;;;-144.30;30.00;80088.75;5012746;28;20582;-54
2023/07/22 08:13:26;;;;;;;9.30;8.32;;;;;;;-144.30;29.77;80080.81;5012352;28;20632;-54
2023/07/22 08:15:53;;;;;;;11.30;8.18;;;;;;;-144.30;30.06;80211.81;5012476;28;20255;-53
2023/07/22 08:18:21;;;;;;;9.20;8.18;;;;;;;-144.30;29.63;80108.59;5024333;28;20691;-50
2023/07/22 08:20:48;;;;;;;14.40;8.90;;;;;;;-144.30;29.45;79997.44;5016746;28;20217;-50
2023/07/22 08:23:15;;;;;;;11.63;8.48;;;;;;;-144.30;29.71;80029.19;5011929;28;20204;-49
2023/07/22 08:25:42;;;;;;;13.07;8.70;;;;;;;-144.30;29.84;80184.03;5012020;28;20204;-53
2023/07/22 08:28:09;;;;;;;9.77;8.90;;;;;;;-144.30;29.91;80134.41;5012078;28;20203;-53
2023/07/22 08:30:36;;;;;;;13.05;9.32;;;;;;;-144.30;30.11;80182.03;5012268;28;20644;-52
2023/07/22 08:33:03;;;;;;;17.55;8.88;;;;;;;-144.30;30.08;80110.56;5012108;28;20661;-53
2023/07/22 08:35:32;;;;;;;10.05;9.05;;;;;;;-144.30;30.55;80402.38;5011853;28;20197;-52
2023/07/22 08:37:59;;;;;;;21.85;11.75;;;;;;;-144.30;30.59;80446.03;5012087;28;20296;-49
2023/07/22 08:40:25;;;;;;;17.45;10.00;;;;;;;-144.30;30.91;80414.28;5011707;28;20209;-52
2023/07/22 08:42:54;;;;;;;14.20;10.20;;;;;;;-144.30;31.49;80594.94;5012235;28;20225;-53
2023/07/22 08:45:22;;;;;;;10.38;9.25;;;;;;;-144.30;31.54;80690.22;5012155;28;20202;-53
2023/07/22 08:47:52;;;;;;;9.93;9.10;;;;;;;-144.30;31.54;80650.50;5011687;28;20292;-50
2023/07/22 08:50:24;;;;;;;11.57;10.40;;;;;;;-144.30;31.93;80797.41;5011518;28;20288;-53
2023/07/22 08:52:52;;;;;;;11.65;9.82;;;;;;;-144.30;31.83;80783.53;5011953;28;20197;-51
2023/07/22 08:55:19;;;;;;;13.82;9.57;;;;;;;-144.30;31.53;80731.91;5011526;28;20520;-49
2023/07/22 08:57:47;;;;;;;18.08;9.52;;;;;;;-144.30;31.89;80815.28;5011591;28;20205;-50
2023/07/22 09:00:15;;;;;;;10.95;9.55;;;;;;;-144.30;32.14;80934.41;5011969;28;20734;-50
2023/07/22 09:02:43;;;;;;;12.38;9.50;;;;;;;-144.30;32.49;80958.22;5010750;28;20256;-49
2023/07/22 09:05:10;;;;;;;11.38;9.80;;;;;;;-144.30;32.15;80972.13;5011157;28;20239;-50
2023/07/22 09:07:39;;;;;;;10.70;9.68;;;;;;;-144.30;32.05;80982.06;5011344;28;20201;-52
2023/07/22 09:10:10;;;;;;;11.70;10.07;;;;;;;-144.30;32.74;81007.88;5012073;28;20201;-53
2023/07/22 09:12:39;;;;;;;10.13;9.23;;;;;;;-144.30;32.86;81085.31;5011335;28;20193;-53
2023/07/22 09:15:11;;;;;;;10.55;9.50;;;;;;;-144.30;32.73;81035.66;5011149;28;20200;-53
2023/07/22 09:17:39;;;;;;;10.90;9.95;;;;;;;-144.30;33.23;81128.97;5011211;28;20237;-49
2023/07/22 09:20:07;;;;;;;12.55;9.82;;;;;;;-144.30;32.88;81047.56;5011127;28;20197;-53
2023/07/22 09:22:36;;;;;;;11.70;10.32;;;;;;;-144.30;33.04;81045.59;5011170;28;20304;-49
2023/07/22 09:25:19;;;;;;;10.85;9.98;;;;;;;-144.30;32.66;81017.78;5011223;28;20582;-50
2023/07/22 09:27:46;;;;;;;12.77;10.00;;;;;;;-144.30;32.32;80926.47;5011238;28;20623;-49
2023/07/22 09:30:25;;;;;;;15.55;10.38;;;;;;;-144.30;32.38;80980.06;5010630;28;20200;-48
2023/07/22 09:32:53;;;;;;;16.02;9.80;;;;;;;-144.30;32.17;80946.31;5010970;28;20568;-53
2023/07/22 09:35:20;;;;;;;11.88;9.77;;;;;;;-144.30;32.05;80922.50;5010609;28;20207;-53
2023/07/22 09:37:48;;;;;;;12.15;10.57;;;;;;;-144.30;31.81;80839.13;5010267;28;20669;-50
2023/07/22 09:40:21;;;;;;;11.82;10.18;;;;;;;-144.30;31.90;80914.56;5009550;28;20684;-49
2023/07/22 09:42:49;;;;;;;12.98;9.60;;;;;;;-144.30;32.32;80948.31;5009690;28;20309;-53
2023/07/22 09:45:16;;;;;;;10.95;9.35;;;;;;;-144.30;32.31;80932.41;5010096;28;20201;-53
2023/07/22 09:47:45;;;;;;;17.40;9.90;;;;;;;-144.30;32.05;80914.56;5010263;28;20264;-53
2023/07/22 09:50:13;;;;;;;14.70;9.68;;;;;;;-144.30;32.21;80856.97;5010026;28;20204;-49
2023/07/22 09:52:45;;;;;;;15.23;9.88;;;;;;;-144.30;31.88;80823.22;5010582;28;20216;-49
2023/07/22 09:55:13;;;;;;;12.07;10.32;;;;;;;-144.30;31.11;80755.72;5010249;28;20282;-49
2023/07/22 09:57:45;;;;;;;12.57;9.90;;;;;;;-144.30;31.53;80807.34;5010353;28;20647;-50
2023/07/22 10:00:14;;;;;;;10.80;9.85;;;;;;;-144.30;31.39;80855.00;5010191;28;20258;-49
2023/07/22 10:02:43;;;;;;;14.88;9.85;;;;;;;-144.30;31.43;80799.41;5010517;28;20221;-48
2023/07/22 10:05:14;;;;;;;19.63;12.27;;;;;;;-144.30;31.87;80851.03;5010155;28;20668;-49
2023/07/22 10:07:45;;;;;;;16.60;10.70;;;;;;;-144.30;31.62;80908.59;5010230;28;20193;-50
2023/07/22 10:10:14;;;;;;;12.65;10.68;;;;;;;-144.30;31.76;80839.13;5010133;28;20247;-50
2023/07/22 10:12:43;;;;;;;21.48;19.20;;;;;;;-144.30;31.85;80874.84;5010550;28;20267;-49
2023/07/22 10:15:11;;;;;;;19.23;11.90;;;;;;;-144.30;31.61;80779.56;5010471;28;20632;-49
2023/07/22 10:17:39;;;;;;;14.32;10.30;;;;;;;-144.30;31.45;80823.22;5010103;28;20240;-53
2023/07/22 10:20:09;;;;;;;13.70;10.80;;;;;;;-144.30;31.72;80839.13;5010195;28;20689;-53
2023/07/22 10:22:37;;;;;;;24.85;20.45;;;;;;;-144.30;32.00;80811.31;5009741;28;20663;-53
2023/07/22 10:25:08;;;;;;;17.00;12.68;;;;;;;-144.30;32.06;80839.13;5009908;28;20621;-52
2023/07/22 10:27:40;;;;;;;11.05;9.85;;;;;;;-144.30;31.82;81025.72;5009171;28;20197;-49
2023/07/22 10:30:10;;;;;;;13.30;9.68;;;;;;;-144.30;31.83;80847.06;5009768;28;20197;-52
2023/07/22 10:32:38;;;;;;;17.05;10.40;;;;;;;-144.30;32.63;80952.28;5009820;28;20256;-50
2023/07/22 10:35:09;;;;;;;12.27;10.35;;;;;;;-144.30;32.14;80956.25;5009667;28;20197;-50
2023/07/22 10:37:37;;;;;;;14.10;10.30;;;;;;;-144.30;32.91;80997.94;5009776;28;20255;-50
2023/07/22 10:40:20;;;;;;;14.45;9.95;;;;;;;-144.30;32.66;81075.38;5009644;28;20201;-48
2023/07/22 10:42:54;;;;;;;11.48;9.80;;;;;;;-144.30;33.28;81130.97;5007207;28;20639;-49
2023/07/22 10:45:30;;;;;;;14.88;9.93;;;;;;;-144.30;32.99;81121.03;5009520;28;20677;-50
2023/07/22 10:48:02;;;;;;;14.55;10.23;;;;;;;-144.30;33.50;81518.16;5009932;28;20284;-50
2023/07/22 10:50:40;;;;;;;14.32;9.90;;;;;;;-144.30;33.43;81198.47;5009997;28;20680;-49
2023/07/22 10:53:07;;;;;;;19.75;10.02;;;;;;;-144.30;33.48;81242.16;5009804;28;20256;-50
2023/07/22 10:55:34;;;;;;;12.35;10.40;;;;;;;-144.30;33.45;81238.19;5009424;28;20201;-50
2023/07/22 10:58:06;;;;;;;12.70;10.23;;;;;;;-144.30;33.05;81248.13;5020750;28;20193;-53
2023/07/22 11:00:34;;;;;;;14.68;9.10;;;;;;;-144.30;33.02;81303.72;5027516;28;20203;-50
2023/07/22 11:03:11;;;;;;;12.32;9.98;;;;;;;-144.30;33.45;81410.94;5027460;28;20802;-49
2023/07/22 11:05:52;;;;;;;13.65;10.10;;;;;;;-144.30;33.54;81424.81;5034805;28;20203;-53
2023/07/22 11:08:38;;;;;;;11.07;10.10;;;;;;;-144.30;33.44;81458.59;5046966;28;20285;-53
2023/07/22 11:11:05;;;;;;;14.93;9.35;;;;;;;-144.30;33.75;81466.53;5048806;28;20668;-53
2023/07/22 11:13:38;;;;;;;14.77;10.45;;;;;;;-144.30;33.64;81474.47;5049033;28;20196;-52
2023/07/22 11:16:11;;;;;;;13.35;9.55;;;;;;;-144.30;33.07;81403.00;5049233;28;20200;-52